Hovedside
METAR-TAF:

METAR-TAF

Lufthavner :

Sundsvall Timrå lufthavn

Sundsvall-Härnösand, Sverige

breddegrad: 62-32N, lengdegrad: 017-27E, høyde over havet: 4 m

Gjeldene værobservasjon

Denne rapporten ble laget for 42 minutter siden, klokken 12:20 UTC
Vind 11 kt fra Sør-sørøst
Temperatur 18°C
Luftfuktighet 59%
Trykk 1011 hPa
Sikt 10 km eller mer

METAR: ESNN 151220Z AUTO 15011KT 9999 NCD 18/10 Q1011

Tid: 15:02 (13:02 UTC)

Varsel

Denne rapporten ble laget for 1 time og 32 minutter siden, klokken 11:30 UTC
Varsel gyldig fra 15. klokken 12 UTC til 15. klokken 21 UTC
Vind 10 kt fra Sør-sørøst
Sikt 10 km eller mer
Få skyer i en høyde av 3500 ft

TAF: ESNN 151130Z 1512/1521 15010KT 9999 FEW035

Værobservasjoner og værvarsel for over 4000 flyplasser (METAR- og TAF-rapporter).

Tilgjengelige stasjoner er representert av de røde og gule prikkene på kartet.

Hold musepekeren over prikken for å se navnet på stasjonen.

Klikk så for å se værobservasjoner og -varsler.

For å forandre kartet kan du klikke på den grønne knappen med svart kryss for å zoome inn, på den grønne knappen med strek for å zoome ut, eller på de grønne pilene for å se tilstøtende kart.


METAR-TAF: